sensor_id;sensor_type;location;lat;lon;timestamp;P1;durP1;ratioP1;P2;durP2;ratioP2
43337;SDS011;28933;52.492;13.434;2023-12-20T00:00:10;4.13;;;3.38;;
43337;SDS011;28933;52.492;13.434;2023-12-20T00:02:56;4.85;;;3.42;;
43337;SDS011;28933;52.492;13.434;2023-12-20T00:05:42;4.40;;;3.47;;
43337;SDS011;28933;52.492;13.434;2023-12-20T00:08:28;5.05;;;3.65;;
43337;SDS011;28933;52.492;13.434;2023-12-20T00:11:14;4.32;;;2.90;;
43337;SDS011;28933;52.492;13.434;2023-12-20T00:14:00;4.55;;;3.33;;
43337;SDS011;28933;52.492;13.434;2023-12-20T00:16:46;4.22;;;3.05;;
43337;SDS011;28933;52.492;13.434;2023-12-20T00:19:32;5.15;;;3.30;;
43337;SDS011;28933;52.492;13.434;2023-12-20T00:22:18;4.60;;;3.75;;
43337;SDS011;28933;52.492;13.434;2023-12-20T00:25:04;4.63;;;3.28;;
43337;SDS011;28933;52.492;13.434;2023-12-20T00:27:50;5.10;;;3.22;;
43337;SDS011;28933;52.492;13.434;2023-12-20T00:30:36;3.90;;;3.00;;
43337;SDS011;28933;52.492;13.434;2023-12-20T00:33:22;4.13;;;2.97;;
43337;SDS011;28933;52.492;13.434;2023-12-20T00:36:08;3.47;;;2.92;;
43337;SDS011;28933;52.492;13.434;2023-12-20T00:38:53;4.18;;;3.00;;
43337;SDS011;28933;52.492;13.434;2023-12-20T00:41:39;3.47;;;2.80;;
43337;SDS011;28933;52.492;13.434;2023-12-20T00:44:25;4.45;;;3.03;;
43337;SDS011;28933;52.492;13.434;2023-12-20T00:47:11;4.10;;;3.17;;
43337;SDS011;28933;52.492;13.434;2023-12-20T00:49:58;4.30;;;3.30;;
43337;SDS011;28933;52.492;13.434;2023-12-20T00:52:44;4.10;;;3.55;;
43337;SDS011;28933;52.492;13.434;2023-12-20T00:55:31;4.18;;;3.25;;
43337;SDS011;28933;52.492;13.434;2023-12-20T00:58:17;3.97;;;3.05;;
43337;SDS011;28933;52.492;13.434;2023-12-20T01:01:03;3.17;;;2.65;;
43337;SDS011;28933;52.492;13.434;2023-12-20T01:03:50;2.67;;;2.35;;
43337;SDS011;28933;52.492;13.434;2023-12-20T01:06:36;3.85;;;2.60;;
43337;SDS011;28933;52.492;13.434;2023-12-20T01:09:22;3.78;;;2.85;;
43337;SDS011;28933;52.492;13.434;2023-12-20T01:12:11;4.32;;;3.08;;
43337;SDS011;28933;52.492;13.434;2023-12-20T01:14:57;3.67;;;2.75;;
43337;SDS011;28933;52.492;13.434;2023-12-20T01:17:43;4.20;;;2.80;;
43337;SDS011;28933;52.492;13.434;2023-12-20T01:20:29;2.83;;;2.47;;
43337;SDS011;28933;52.492;13.434;2023-12-20T01:23:15;3.30;;;2.65;;
43337;SDS011;28933;52.492;13.434;2023-12-20T01:26:01;4.90;;;2.70;;
43337;SDS011;28933;52.492;13.434;2023-12-20T01:28:48;3.30;;;2.65;;
43337;SDS011;28933;52.492;13.434;2023-12-20T01:31:34;3.38;;;2.80;;
43337;SDS011;28933;52.492;13.434;2023-12-20T01:34:20;3.72;;;2.80;;
43337;SDS011;28933;52.492;13.434;2023-12-20T01:37:06;4.32;;;2.78;;
43337;SDS011;28933;52.492;13.434;2023-12-20T01:39:52;3.67;;;2.88;;
43337;SDS011;28933;52.492;13.434;2023-12-20T01:42:38;3.45;;;2.47;;
43337;SDS011;28933;52.492;13.434;2023-12-20T01:45:24;3.60;;;2.60;;
43337;SDS011;28933;52.492;13.434;2023-12-20T01:48:10;3.22;;;2.60;;
43337;SDS011;28933;52.492;13.434;2023-12-20T01:50:56;3.45;;;2.40;;
43337;SDS011;28933;52.492;13.434;2023-12-20T01:53:42;3.10;;;2.17;;
43337;SDS011;28933;52.492;13.434;2023-12-20T01:56:29;3.58;;;2.30;;
43337;SDS011;28933;52.492;13.434;2023-12-20T01:59:17;2.88;;;2.22;;
43337;SDS011;28933;52.492;13.434;2023-12-20T02:02:06;3.20;;;2.58;;
43337;SDS011;28933;52.492;13.434;2023-12-20T02:04:53;3.92;;;2.25;;
43337;SDS011;28933;52.492;13.434;2023-12-20T02:07:39;3.95;;;2.60;;
43337;SDS011;28933;52.492;13.434;2023-12-20T02:10:25;3.35;;;2.28;;
43337;SDS011;28933;52.492;13.434;2023-12-20T02:13:11;3.72;;;2.75;;
43337;SDS011;28933;52.492;13.434;2023-12-20T02:15:57;3.63;;;3.10;;
43337;SDS011;28933;52.492;13.434;2023-12-20T02:18:43;3.40;;;2.58;;
43337;SDS011;28933;52.492;13.434;2023-12-20T02:21:33;3.45;;;2.38;;
43337;SDS011;28933;52.492;13.434;2023-12-20T02:24:20;3.00;;;2.35;;
43337;SDS011;28933;52.492;13.434;2023-12-20T02:27:06;3.30;;;1.98;;
43337;SDS011;28933;52.492;13.434;2023-12-20T02:29:53;3.28;;;2.47;;
43337;SDS011;28933;52.492;13.434;2023-12-20T02:32:39;3.00;;;2.42;;
43337;SDS011;28933;52.492;13.434;2023-12-20T02:35:25;3.72;;;2.72;;
43337;SDS011;28933;52.492;13.434;2023-12-20T02:38:11;3.58;;;2.55;;
43337;SDS011;28933;52.492;13.434;2023-12-20T02:40:57;3.50;;;2.53;;
43337;SDS011;28933;52.492;13.434;2023-12-20T02:43:43;3.13;;;2.38;;
43337;SDS011;28933;52.492;13.434;2023-12-20T02:46:29;3.03;;;2.30;;
43337;SDS011;28933;52.492;13.434;2023-12-20T02:49:15;2.92;;;2.25;;
43337;SDS011;28933;52.492;13.434;2023-12-20T02:52:01;3.75;;;2.92;;
43337;SDS011;28933;52.492;13.434;2023-12-20T02:54:47;4.82;;;2.97;;
43337;SDS011;28933;52.492;13.434;2023-12-20T02:57:33;3.78;;;2.88;;
43337;SDS011;28933;52.492;13.434;2023-12-20T03:00:21;4.15;;;3.13;;
43337;SDS011;28933;52.492;13.434;2023-12-20T03:03:07;4.80;;;3.75;;
43337;SDS011;28933;52.492;13.434;2023-12-20T03:05:53;3.90;;;2.80;;
43337;SDS011;28933;52.492;13.434;2023-12-20T03:08:39;4.15;;;3.00;;
43337;SDS011;28933;52.492;13.434;2023-12-20T03:11:26;4.20;;;3.08;;
43337;SDS011;28933;52.492;13.434;2023-12-20T03:14:13;4.10;;;3.25;;
43337;SDS011;28933;52.492;13.434;2023-12-20T03:16:59;5.10;;;3.03;;
43337;SDS011;28933;52.492;13.434;2023-12-20T03:19:45;5.38;;;2.80;;
43337;SDS011;28933;52.492;13.434;2023-12-20T03:22:31;3.85;;;2.90;;
43337;SDS011;28933;52.492;13.434;2023-12-20T03:25:17;5.07;;;4.35;;
43337;SDS011;28933;52.492;13.434;2023-12-20T03:28:03;5.80;;;3.40;;
43337;SDS011;28933;52.492;13.434;2023-12-20T03:30:49;6.10;;;3.28;;
43337;SDS011;28933;52.492;13.434;2023-12-20T03:33:35;6.90;;;3.35;;
43337;SDS011;28933;52.492;13.434;2023-12-20T03:36:21;7.38;;;2.67;;
43337;SDS011;28933;52.492;13.434;2023-12-20T03:39:07;5.25;;;2.53;;
43337;SDS011;28933;52.492;13.434;2023-12-20T03:41:53;5.57;;;2.40;;
43337;SDS011;28933;52.492;13.434;2023-12-20T03:44:39;5.30;;;2.17;;
43337;SDS011;28933;52.492;13.434;2023-12-20T03:47:28;10.02;;;2.42;;
43337;SDS011;28933;52.492;13.434;2023-12-20T03:50:13;5.25;;;2.50;;
43337;SDS011;28933;52.492;13.434;2023-12-20T03:52:59;5.40;;;2.30;;
43337;SDS011;28933;52.492;13.434;2023-12-20T03:55:45;4.82;;;2.40;;
43337;SDS011;28933;52.492;13.434;2023-12-20T03:58:31;4.40;;;2.30;;
43337;SDS011;28933;52.492;13.434;2023-12-20T04:01:17;4.78;;;2.08;;
43337;SDS011;28933;52.492;13.434;2023-12-20T04:04:03;6.47;;;2.33;;
43337;SDS011;28933;52.492;13.434;2023-12-20T04:06:49;5.30;;;1.98;;
43337;SDS011;28933;52.492;13.434;2023-12-20T04:09:35;7.38;;;3.17;;
43337;SDS011;28933;52.492;13.434;2023-12-20T04:12:21;5.97;;;2.50;;
43337;SDS011;28933;52.492;13.434;2023-12-20T04:15:07;5.80;;;2.30;;
43337;SDS011;28933;52.492;13.434;2023-12-20T04:17:55;5.05;;;2.50;;
43337;SDS011;28933;52.492;13.434;2023-12-20T04:20:41;6.55;;;1.98;;
43337;SDS011;28933;52.492;13.434;2023-12-20T04:23:27;5.80;;;2.03;;
43337;SDS011;28933;52.492;13.434;2023-12-20T04:26:13;7.32;;;1.98;;
43337;SDS011;28933;52.492;13.434;2023-12-20T04:28:59;5.13;;;1.90;;
43337;SDS011;28933;52.492;13.434;2023-12-20T04:31:45;9.07;;;2.75;;
43337;SDS011;28933;52.492;13.434;2023-12-20T04:34:30;7.25;;;1.88;;
43337;SDS011;28933;52.492;13.434;2023-12-20T04:37:16;6.93;;;2.38;;
43337;SDS011;28933;52.492;13.434;2023-12-20T04:40:02;9.23;;;3.00;;
43337;SDS011;28933;52.492;13.434;2023-12-20T04:42:50;8.27;;;2.35;;
43337;SDS011;28933;52.492;13.434;2023-12-20T04:45:36;9.48;;;2.95;;
43337;SDS011;28933;52.492;13.434;2023-12-20T04:48:22;7.80;;;3.55;;
43337;SDS011;28933;52.492;13.434;2023-12-20T04:51:08;6.75;;;2.78;;
43337;SDS011;28933;52.492;13.434;2023-12-20T04:53:54;8.63;;;3.28;;
43337;SDS011;28933;52.492;13.434;2023-12-20T04:56:40;5.70;;;2.58;;
43337;SDS011;28933;52.492;13.434;2023-12-20T04:59:27;6.47;;;2.28;;
43337;SDS011;28933;52.492;13.434;2023-12-20T05:02:12;5.20;;;2.42;;
43337;SDS011;28933;52.492;13.434;2023-12-20T05:04:58;8.77;;;3.22;;
43337;SDS011;28933;52.492;13.434;2023-12-20T05:07:44;6.13;;;2.78;;
43337;SDS011;28933;52.492;13.434;2023-12-20T05:10:30;3.70;;;2.03;;
43337;SDS011;28933;52.492;13.434;2023-12-20T05:13:16;6.75;;;2.47;;
43337;SDS011;28933;52.492;13.434;2023-12-20T05:16:02;6.18;;;2.70;;
43337;SDS011;28933;52.492;13.434;2023-12-20T05:18:48;4.38;;;2.28;;
43337;SDS011;28933;52.492;13.434;2023-12-20T05:21:35;6.85;;;3.22;;
43337;SDS011;28933;52.492;13.434;2023-12-20T05:24:21;6.20;;;2.20;;
43337;SDS011;28933;52.492;13.434;2023-12-20T05:27:07;9.07;;;2.03;;
43337;SDS011;28933;52.492;13.434;2023-12-20T05:29:53;3.83;;;1.95;;
43337;SDS011;28933;52.492;13.434;2023-12-20T05:32:42;10.32;;;3.47;;
43337;SDS011;28933;52.492;13.434;2023-12-20T05:35:28;7.55;;;2.70;;
43337;SDS011;28933;52.492;13.434;2023-12-20T05:38:14;6.07;;;2.55;;
43337;SDS011;28933;52.492;13.434;2023-12-20T05:41:00;7.25;;;2.30;;
43337;SDS011;28933;52.492;13.434;2023-12-20T05:43:46;4.80;;;2.67;;
43337;SDS011;28933;52.492;13.434;2023-12-20T05:46:32;6.38;;;2.22;;
43337;SDS011;28933;52.492;13.434;2023-12-20T05:49:18;7.03;;;2.22;;
43337;SDS011;28933;52.492;13.434;2023-12-20T05:52:04;4.63;;;2.70;;
43337;SDS011;28933;52.492;13.434;2023-12-20T05:54:50;6.22;;;2.60;;
43337;SDS011;28933;52.492;13.434;2023-12-20T05:57:36;8.13;;;2.45;;
43337;SDS011;28933;52.492;13.434;2023-12-20T06:00:22;6.32;;;2.00;;
43337;SDS011;28933;52.492;13.434;2023-12-20T06:03:08;4.25;;;2.20;;
43337;SDS011;28933;52.492;13.434;2023-12-20T06:05:54;5.93;;;2.10;;
43337;SDS011;28933;52.492;13.434;2023-12-20T06:08:40;8.82;;;2.55;;
43337;SDS011;28933;52.492;13.434;2023-12-20T06:11:26;9.80;;;2.60;;
43337;SDS011;28933;52.492;13.434;2023-12-20T06:14:13;7.28;;;2.15;;
43337;SDS011;28933;52.492;13.434;2023-12-20T06:16:58;7.13;;;2.63;;
43337;SDS011;28933;52.492;13.434;2023-12-20T06:19:44;7.45;;;2.35;;
43337;SDS011;28933;52.492;13.434;2023-12-20T06:22:34;4.50;;;2.13;;
43337;SDS011;28933;52.492;13.434;2023-12-20T06:25:20;10.00;;;3.60;;
43337;SDS011;28933;52.492;13.434;2023-12-20T06:28:06;6.07;;;2.22;;
43337;SDS011;28933;52.492;13.434;2023-12-20T06:30:52;7.30;;;3.10;;
43337;SDS011;28933;52.492;13.434;2023-12-20T06:33:39;10.02;;;2.95;;
43337;SDS011;28933;52.492;13.434;2023-12-20T06:36:28;9.07;;;2.45;;
43337;SDS011;28933;52.492;13.434;2023-12-20T06:39:14;4.88;;;2.53;;
43337;SDS011;28933;52.492;13.434;2023-12-20T06:42:00;5.90;;;2.50;;
43337;SDS011;28933;52.492;13.434;2023-12-20T06:44:46;8.57;;;2.95;;
43337;SDS011;28933;52.492;13.434;2023-12-20T06:47:32;7.25;;;2.97;;
43337;SDS011;28933;52.492;13.434;2023-12-20T06:50:17;7.00;;;2.50;;
43337;SDS011;28933;52.492;13.434;2023-12-20T06:53:03;5.25;;;2.25;;
43337;SDS011;28933;52.492;13.434;2023-12-20T06:55:52;8.60;;;2.95;;
43337;SDS011;28933;52.492;13.434;2023-12-20T06:58:38;6.07;;;2.33;;
43337;SDS011;28933;52.492;13.434;2023-12-20T07:01:24;6.03;;;2.53;;
43337;SDS011;28933;52.492;13.434;2023-12-20T07:04:10;5.68;;;2.92;;
43337;SDS011;28933;52.492;13.434;2023-12-20T07:06:56;5.38;;;2.33;;
43337;SDS011;28933;52.492;13.434;2023-12-20T07:09:45;6.65;;;2.28;;
43337;SDS011;28933;52.492;13.434;2023-12-20T07:12:31;4.65;;;2.10;;
43337;SDS011;28933;52.492;13.434;2023-12-20T07:15:17;6.13;;;2.38;;
43337;SDS011;28933;52.492;13.434;2023-12-20T07:18:03;8.32;;;2.20;;
43337;SDS011;28933;52.492;13.434;2023-12-20T07:20:50;5.80;;;2.45;;
43337;SDS011;28933;52.492;13.434;2023-12-20T07:23:36;5.38;;;2.50;;
43337;SDS011;28933;52.492;13.434;2023-12-20T07:26:22;5.40;;;1.98;;
43337;SDS011;28933;52.492;13.434;2023-12-20T07:29:08;13.85;;;4.05;;
43337;SDS011;28933;52.492;13.434;2023-12-20T07:31:54;5.90;;;3.05;;
43337;SDS011;28933;52.492;13.434;2023-12-20T07:34:40;8.23;;;2.50;;
43337;SDS011;28933;52.492;13.434;2023-12-20T07:37:26;6.35;;;2.63;;
43337;SDS011;28933;52.492;13.434;2023-12-20T07:40:15;6.28;;;2.30;;
43337;SDS011;28933;52.492;13.434;2023-12-20T07:43:02;8.82;;;2.22;;
43337;SDS011;28933;52.492;13.434;2023-12-20T07:45:48;4.50;;;2.40;;
43337;SDS011;28933;52.492;13.434;2023-12-20T07:48:34;13.00;;;2.72;;
43337;SDS011;28933;52.492;13.434;2023-12-20T07:51:21;12.40;;;3.85;;
43337;SDS011;28933;52.492;13.434;2023-12-20T07:54:07;11.43;;;2.97;;
43337;SDS011;28933;52.492;13.434;2023-12-20T07:56:53;6.18;;;2.65;;
43337;SDS011;28933;52.492;13.434;2023-12-20T07:59:39;5.72;;;2.03;;
43337;SDS011;28933;52.492;13.434;2023-12-20T08:02:25;6.90;;;1.92;;
43337;SDS011;28933;52.492;13.434;2023-12-20T08:05:11;6.68;;;2.95;;
43337;SDS011;28933;52.492;13.434;2023-12-20T08:07:57;6.57;;;2.05;;
43337;SDS011;28933;52.492;13.434;2023-12-20T08:10:43;5.38;;;2.00;;
43337;SDS011;28933;52.492;13.434;2023-12-20T08:13:29;6.13;;;2.33;;
43337;SDS011;28933;52.492;13.434;2023-12-20T08:16:15;7.70;;;2.08;;
43337;SDS011;28933;52.492;13.434;2023-12-20T08:19:02;4.78;;;2.15;;
43337;SDS011;28933;52.492;13.434;2023-12-20T08:21:48;6.30;;;2.30;;
43337;SDS011;28933;52.492;13.434;2023-12-20T08:24:34;4.63;;;1.95;;
43337;SDS011;28933;52.492;13.434;2023-12-20T08:27:20;4.72;;;2.03;;
43337;SDS011;28933;52.492;13.434;2023-12-20T08:30:07;6.72;;;2.25;;
43337;SDS011;28933;52.492;13.434;2023-12-20T08:32:54;4.35;;;2.00;;
43337;SDS011;28933;52.492;13.434;2023-12-20T08:35:40;5.65;;;2.42;;
43337;SDS011;28933;52.492;13.434;2023-12-20T08:38:26;7.72;;;2.42;;
43337;SDS011;28933;52.492;13.434;2023-12-20T08:41:12;9.90;;;2.50;;
43337;SDS011;28933;52.492;13.434;2023-12-20T08:43:58;8.23;;;2.15;;
43337;SDS011;28933;52.492;13.434;2023-12-20T08:46:44;10.88;;;2.83;;
43337;SDS011;28933;52.492;13.434;2023-12-20T08:49:30;4.57;;;1.73;;
43337;SDS011;28933;52.492;13.434;2023-12-20T08:52:16;6.80;;;2.97;;
43337;SDS011;28933;52.492;13.434;2023-12-20T08:55:03;9.35;;;2.15;;
43337;SDS011;28933;52.492;13.434;2023-12-20T08:57:49;5.53;;;2.35;;
43337;SDS011;28933;52.492;13.434;2023-12-20T09:00:36;7.45;;;2.72;;
43337;SDS011;28933;52.492;13.434;2023-12-20T09:03:22;7.10;;;1.85;;
43337;SDS011;28933;52.492;13.434;2023-12-20T09:06:08;5.05;;;1.98;;
43337;SDS011;28933;52.492;13.434;2023-12-20T09:08:53;6.70;;;2.28;;
43337;SDS011;28933;52.492;13.434;2023-12-20T09:11:39;6.75;;;2.15;;
43337;SDS011;28933;52.492;13.434;2023-12-20T09:14:26;7.88;;;2.38;;
43337;SDS011;28933;52.492;13.434;2023-12-20T09:17:12;6.78;;;3.08;;
43337;SDS011;28933;52.492;13.434;2023-12-20T09:19:58;8.90;;;3.70;;
43337;SDS011;28933;52.492;13.434;2023-12-20T09:22:45;6.13;;;2.45;;
43337;SDS011;28933;52.492;13.434;2023-12-20T09:25:31;7.85;;;2.67;;
43337;SDS011;28933;52.492;13.434;2023-12-20T09:28:17;4.95;;;1.95;;
43337;SDS011;28933;52.492;13.434;2023-12-20T09:31:03;12.07;;;2.75;;
43337;SDS011;28933;52.492;13.434;2023-12-20T09:33:50;7.10;;;2.30;;
43337;SDS011;28933;52.492;13.434;2023-12-20T09:36:36;8.10;;;2.42;;
43337;SDS011;28933;52.492;13.434;2023-12-20T09:39:24;9.18;;;2.10;;
43337;SDS011;28933;52.492;13.434;2023-12-20T09:42:11;10.50;;;2.63;;
43337;SDS011;28933;52.492;13.434;2023-12-20T09:45:00;7.28;;;2.83;;
43337;SDS011;28933;52.492;13.434;2023-12-20T09:47:54;8.57;;;2.03;;
43337;SDS011;28933;52.492;13.434;2023-12-20T09:50:42;9.82;;;2.53;;
43337;SDS011;28933;52.492;13.434;2023-12-20T09:53:29;6.47;;;2.20;;
43337;SDS011;28933;52.492;13.434;2023-12-20T09:56:18;9.07;;;3.20;;
43337;SDS011;28933;52.492;13.434;2023-12-20T09:59:04;4.22;;;2.15;;
43337;SDS011;28933;52.492;13.434;2023-12-20T10:01:50;4.82;;;2.33;;
43337;SDS011;28933;52.492;13.434;2023-12-20T10:04:42;7.45;;;2.40;;
43337;SDS011;28933;52.492;13.434;2023-12-20T10:07:32;8.45;;;2.65;;
43337;SDS011;28933;52.492;13.434;2023-12-20T10:10:18;5.88;;;2.03;;
43337;SDS011;28933;52.492;13.434;2023-12-20T10:13:07;4.90;;;2.28;;
43337;SDS011;28933;52.492;13.434;2023-12-20T10:15:55;6.38;;;2.10;;
43337;SDS011;28933;52.492;13.434;2023-12-20T10:18:41;5.63;;;2.42;;
43337;SDS011;28933;52.492;13.434;2023-12-20T10:21:27;7.03;;;2.53;;
43337;SDS011;28933;52.492;13.434;2023-12-20T10:24:17;9.95;;;3.15;;
43337;SDS011;28933;52.492;13.434;2023-12-20T10:27:04;6.68;;;2.60;;
43337;SDS011;28933;52.492;13.434;2023-12-20T10:29:51;8.93;;;2.58;;
43337;SDS011;28933;52.492;13.434;2023-12-20T10:32:37;9.80;;;3.13;;
43337;SDS011;28933;52.492;13.434;2023-12-20T10:35:22;6.82;;;2.65;;
43337;SDS011;28933;52.492;13.434;2023-12-20T10:38:08;9.27;;;2.60;;
43337;SDS011;28933;52.492;13.434;2023-12-20T10:40:57;6.90;;;2.20;;
43337;SDS011;28933;52.492;13.434;2023-12-20T10:43:46;5.28;;;2.78;;
43337;SDS011;28933;52.492;13.434;2023-12-20T10:46:33;8.30;;;2.45;;
43337;SDS011;28933;52.492;13.434;2023-12-20T10:49:19;11.25;;;3.58;;
43337;SDS011;28933;52.492;13.434;2023-12-20T10:52:06;8.25;;;2.78;;
43337;SDS011;28933;52.492;13.434;2023-12-20T10:54:54;10.38;;;2.38;;
43337;SDS011;28933;52.492;13.434;2023-12-20T10:57:40;9.50;;;2.92;;
43337;SDS011;28933;52.492;13.434;2023-12-20T11:00:28;4.93;;;3.03;;
43337;SDS011;28933;52.492;13.434;2023-12-20T11:03:16;8.55;;;2.50;;
43337;SDS011;28933;52.492;13.434;2023-12-20T11:06:18;7.93;;;3.38;;
43337;SDS011;28933;52.492;13.434;2023-12-20T11:09:14;10.98;;;3.17;;
43337;SDS011;28933;52.492;13.434;2023-12-20T11:12:18;7.72;;;2.33;;
43337;SDS011;28933;52.492;13.434;2023-12-20T11:15:11;9.85;;;2.83;;
43337;SDS011;28933;52.492;13.434;2023-12-20T11:17:58;5.65;;;2.35;;
43337;SDS011;28933;52.492;13.434;2023-12-20T11:20:44;8.13;;;2.80;;
43337;SDS011;28933;52.492;13.434;2023-12-20T11:23:34;8.15;;;3.25;;
43337;SDS011;28933;52.492;13.434;2023-12-20T11:26:22;6.90;;;2.85;;
43337;SDS011;28933;52.492;13.434;2023-12-20T11:29:32;7.68;;;2.88;;
43337;SDS011;28933;52.492;13.434;2023-12-20T11:37:57;5.85;;;2.42;;
43337;SDS011;28933;52.492;13.434;2023-12-20T11:40:43;8.23;;;2.80;;
43337;SDS011;28933;52.492;13.434;2023-12-20T11:43:35;6.53;;;2.63;;
43337;SDS011;28933;52.492;13.434;2023-12-20T11:46:22;8.38;;;2.65;;
43337;SDS011;28933;52.492;13.434;2023-12-20T11:49:08;8.35;;;2.72;;
43337;SDS011;28933;52.492;13.434;2023-12-20T11:51:54;7.25;;;3.03;;
43337;SDS011;28933;52.492;13.434;2023-12-20T11:54:40;7.93;;;2.45;;
43337;SDS011;28933;52.492;13.434;2023-12-20T11:57:26;4.63;;;2.10;;
43337;SDS011;28933;52.492;13.434;2023-12-20T12:00:13;8.90;;;3.50;;
43337;SDS011;28933;52.492;13.434;2023-12-20T12:02:59;6.40;;;2.67;;
43337;SDS011;28933;52.492;13.434;2023-12-20T12:05:47;9.05;;;3.50;;
43337;SDS011;28933;52.492;13.434;2023-12-20T12:08:33;4.65;;;2.05;;
43337;SDS011;28933;52.492;13.434;2023-12-20T12:11:21;9.48;;;2.70;;
43337;SDS011;28933;52.492;13.434;2023-12-20T12:14:08;6.85;;;2.17;;
43337;SDS011;28933;52.492;13.434;2023-12-20T12:16:54;4.38;;;2.42;;
43337;SDS011;28933;52.492;13.434;2023-12-20T12:19:40;6.40;;;2.45;;
43337;SDS011;28933;52.492;13.434;2023-12-20T12:22:27;6.70;;;2.78;;
43337;SDS011;28933;52.492;13.434;2023-12-20T12:25:13;6.18;;;2.63;;
43337;SDS011;28933;52.492;13.434;2023-12-20T12:27:59;7.45;;;2.47;;
43337;SDS011;28933;52.492;13.434;2023-12-20T12:30:58;5.05;;;2.47;;
43337;SDS011;28933;52.492;13.434;2023-12-20T12:33:44;7.90;;;2.72;;
43337;SDS011;28933;52.492;13.434;2023-12-20T12:36:31;7.90;;;2.80;;
43337;SDS011;28933;52.492;13.434;2023-12-20T12:39:18;8.32;;;2.42;;
43337;SDS011;28933;52.492;13.434;2023-12-20T12:42:04;7.00;;;2.63;;
43337;SDS011;28933;52.492;13.434;2023-12-20T12:44:50;7.40;;;3.10;;
43337;SDS011;28933;52.492;13.434;2023-12-20T12:47:36;5.90;;;2.60;;
43337;SDS011;28933;52.492;13.434;2023-12-20T12:50:22;5.63;;;2.33;;
43337;SDS011;28933;52.492;13.434;2023-12-20T12:53:08;8.50;;;2.78;;
43337;SDS011;28933;52.492;13.434;2023-12-20T12:55:54;8.50;;;1.95;;
43337;SDS011;28933;52.492;13.434;2023-12-20T12:58:40;5.88;;;2.92;;
43337;SDS011;28933;52.492;13.434;2023-12-20T13:01:26;6.38;;;3.22;;
43337;SDS011;28933;52.492;13.434;2023-12-20T13:04:12;7.60;;;2.80;;
43337;SDS011;28933;52.492;13.434;2023-12-20T13:06:58;7.00;;;2.25;;
43337;SDS011;28933;52.492;13.434;2023-12-20T13:09:44;6.72;;;2.88;;
43337;SDS011;28933;52.492;13.434;2023-12-20T13:12:30;7.43;;;2.50;;
43337;SDS011;28933;52.492;13.434;2023-12-20T13:15:17;9.57;;;3.20;;
43337;SDS011;28933;52.492;13.434;2023-12-20T13:18:03;7.80;;;2.50;;
43337;SDS011;28933;52.492;13.434;2023-12-20T13:20:51;6.50;;;3.08;;
43337;SDS011;28933;52.492;13.434;2023-12-20T13:23:37;5.32;;;2.80;;
43337;SDS011;28933;52.492;13.434;2023-12-20T13:26:23;9.02;;;3.50;;
43337;SDS011;28933;52.492;13.434;2023-12-20T13:29:09;9.43;;;3.22;;
43337;SDS011;28933;52.492;13.434;2023-12-20T13:31:55;4.97;;;2.35;;
43337;SDS011;28933;52.492;13.434;2023-12-20T13:34:41;5.90;;;2.40;;
43337;SDS011;28933;52.492;13.434;2023-12-20T13:37:27;2.60;;;1.65;;
43337;SDS011;28933;52.492;13.434;2023-12-20T13:40:14;7.22;;;1.98;;
43337;SDS011;28933;52.492;13.434;2023-12-20T13:43:00;4.07;;;1.67;;
43337;SDS011;28933;52.492;13.434;2023-12-20T13:45:48;2.72;;;1.20;;
43337;SDS011;28933;52.492;13.434;2023-12-20T13:48:34;2.88;;;1.40;;
43337;SDS011;28933;52.492;13.434;2023-12-20T13:51:20;3.63;;;1.42;;
43337;SDS011;28933;52.492;13.434;2023-12-20T13:54:06;2.38;;;1.27;;
43337;SDS011;28933;52.492;13.434;2023-12-20T13:56:52;3.80;;;1.52;;
43337;SDS011;28933;52.492;13.434;2023-12-20T13:59:38;1.80;;;1.35;;
43337;SDS011;28933;52.492;13.434;2023-12-20T14:02:24;5.68;;;2.00;;
43337;SDS011;28933;52.492;13.434;2023-12-20T14:05:12;2.38;;;1.77;;
43337;SDS011;28933;52.492;13.434;2023-12-20T14:07:59;3.50;;;2.00;;
43337;SDS011;28933;52.492;13.434;2023-12-20T14:10:45;3.30;;;1.63;;
43337;SDS011;28933;52.492;13.434;2023-12-20T14:13:31;4.00;;;1.73;;
43337;SDS011;28933;52.492;13.434;2023-12-20T14:16:17;3.88;;;1.58;;
43337;SDS011;28933;52.492;13.434;2023-12-20T14:19:04;2.08;;;1.52;;
43337;SDS011;28933;52.492;13.434;2023-12-20T14:21:54;3.28;;;1.50;;
43337;SDS011;28933;52.492;13.434;2023-12-20T14:24:40;2.30;;;1.20;;
43337;SDS011;28933;52.492;13.434;2023-12-20T14:27:27;2.60;;;1.45;;
43337;SDS011;28933;52.492;13.434;2023-12-20T14:30:13;1.98;;;1.23;;
43337;SDS011;28933;52.492;13.434;2023-12-20T14:32:59;2.40;;;0.98;;
43337;SDS011;28933;52.492;13.434;2023-12-20T14:35:45;1.50;;;1.10;;
43337;SDS011;28933;52.492;13.434;2023-12-20T14:38:31;4.25;;;1.33;;
43337;SDS011;28933;52.492;13.434;2023-12-20T14:41:17;1.05;;;0.85;;
43337;SDS011;28933;52.492;13.434;2023-12-20T14:44:04;1.33;;;1.10;;
43337;SDS011;28933;52.492;13.434;2023-12-20T14:46:50;6.28;;;1.55;;
43337;SDS011;28933;52.492;13.434;2023-12-20T14:49:36;3.15;;;2.08;;
43337;SDS011;28933;52.492;13.434;2023-12-20T14:52:22;2.42;;;1.17;;
43337;SDS011;28933;52.492;13.434;2023-12-20T14:55:09;2.25;;;1.13;;
43337;SDS011;28933;52.492;13.434;2023-12-20T14:57:54;2.42;;;1.35;;
43337;SDS011;28933;52.492;13.434;2023-12-20T15:00:40;2.55;;;1.33;;
43337;SDS011;28933;52.492;13.434;2023-12-20T15:03:28;2.58;;;1.15;;
43337;SDS011;28933;52.492;13.434;2023-12-20T15:06:15;3.65;;;1.30;;
43337;SDS011;28933;52.492;13.434;2023-12-20T15:09:01;4.35;;;1.63;;
43337;SDS011;28933;52.492;13.434;2023-12-20T15:11:50;4.05;;;1.85;;
43337;SDS011;28933;52.492;13.434;2023-12-20T15:14:36;4.57;;;1.40;;
43337;SDS011;28933;52.492;13.434;2023-12-20T15:17:22;3.25;;;1.40;;
43337;SDS011;28933;52.492;13.434;2023-12-20T15:20:08;4.57;;;1.85;;
43337;SDS011;28933;52.492;13.434;2023-12-20T15:22:55;2.75;;;1.73;;
43337;SDS011;28933;52.492;13.434;2023-12-20T15:25:44;12.18;;;1.55;;
43337;SDS011;28933;52.492;13.434;2023-12-20T15:28:30;3.65;;;1.60;;
43337;SDS011;28933;52.492;13.434;2023-12-20T15:31:16;3.80;;;1.50;;
43337;SDS011;28933;52.492;13.434;2023-12-20T15:34:02;4.00;;;1.58;;
43337;SDS011;28933;52.492;13.434;2023-12-20T15:36:48;5.13;;;1.88;;
43337;SDS011;28933;52.492;13.434;2023-12-20T15:39:34;3.88;;;1.40;;
43337;SDS011;28933;52.492;13.434;2023-12-20T15:42:20;4.13;;;1.60;;
43337;SDS011;28933;52.492;13.434;2023-12-20T15:45:06;4.82;;;1.92;;
43337;SDS011;28933;52.492;13.434;2023-12-20T15:47:52;2.55;;;1.02;;
43337;SDS011;28933;52.492;13.434;2023-12-20T15:50:38;2.63;;;1.60;;
43337;SDS011;28933;52.492;13.434;2023-12-20T15:53:24;2.70;;;1.60;;
43337;SDS011;28933;52.492;13.434;2023-12-20T15:56:10;3.45;;;1.70;;
43337;SDS011;28933;52.492;13.434;2023-12-20T15:58:56;7.90;;;2.38;;
43337;SDS011;28933;52.492;13.434;2023-12-20T16:01:44;4.18;;;1.80;;
43337;SDS011;28933;52.492;13.434;2023-12-20T16:04:30;5.55;;;1.35;;
43337;SDS011;28933;52.492;13.434;2023-12-20T16:07:16;2.53;;;1.27;;
43337;SDS011;28933;52.492;13.434;2023-12-20T16:10:02;3.83;;;1.33;;
43337;SDS011;28933;52.492;13.434;2023-12-20T16:12:49;4.00;;;1.63;;
43337;SDS011;28933;52.492;13.434;2023-12-20T16:15:34;3.95;;;1.63;;
43337;SDS011;28933;52.492;13.434;2023-12-20T16:18:20;4.63;;;1.77;;
43337;SDS011;28933;52.492;13.434;2023-12-20T16:21:07;4.22;;;1.80;;
43337;SDS011;28933;52.492;13.434;2023-12-20T16:23:53;5.05;;;1.85;;
43337;SDS011;28933;52.492;13.434;2023-12-20T16:26:38;3.75;;;1.60;;
43337;SDS011;28933;52.492;13.434;2023-12-20T16:29:25;4.72;;;2.50;;
43337;SDS011;28933;52.492;13.434;2023-12-20T16:32:11;3.22;;;1.65;;